createdAt,value
2018-08-30T00:00:47.375Z,3.00
2018-08-30T00:03:16.397Z,2.97
2018-08-30T00:05:44.641Z,2.70
2018-08-30T00:08:13.665Z,2.90
2018-08-30T00:10:41.999Z,3.00
2018-08-30T00:13:10.235Z,3.00
2018-08-30T00:15:38.506Z,2.70
2018-08-30T00:18:06.756Z,3.00
2018-08-30T00:20:35.003Z,2.50
2018-08-30T00:23:04.017Z,2.60
2018-08-30T00:25:32.281Z,2.47
2018-08-30T00:28:01.294Z,2.80
2018-08-30T00:30:29.550Z,2.50
2018-08-30T00:32:57.794Z,2.70
2018-08-30T00:35:26.069Z,2.63
2018-08-30T00:37:54.307Z,2.60
2018-08-30T00:40:22.547Z,2.47
2018-08-30T00:42:51.878Z,2.70
2018-08-30T00:45:20.316Z,2.40
2018-08-30T00:47:49.318Z,2.50
2018-08-30T00:50:17.557Z,2.83
2018-08-30T00:52:45.842Z,2.53
2018-08-30T00:55:14.112Z,2.67
2018-08-30T00:57:42.349Z,2.20
2018-08-30T01:00:10.606Z,2.63
2018-08-30T01:02:38.870Z,2.30
2018-08-30T01:05:07.134Z,2.10
2018-08-30T01:07:36.142Z,2.47
2018-08-30T01:10:04.404Z,2.20
2018-08-30T01:12:33.446Z,2.60
2018-08-30T01:15:01.684Z,2.30
2018-08-30T01:17:30.701Z,2.50
2018-08-30T01:19:58.945Z,2.17
2018-08-30T01:22:27.214Z,2.30
2018-08-30T01:24:55.573Z,2.20
2018-08-30T01:27:23.811Z,2.00
2018-08-30T01:29:52.071Z,2.27
2018-08-30T01:32:20.326Z,1.80
2018-08-30T01:34:48.575Z,2.00
2018-08-30T01:37:17.617Z,2.33
2018-08-30T01:39:45.871Z,2.20
2018-08-30T01:42:14.114Z,2.17
2018-08-30T01:44:42.494Z,1.80
2018-08-30T01:47:10.692Z,1.90
2018-08-30T01:49:38.979Z,2.03
2018-08-30T01:52:07.240Z,2.27
2018-08-30T01:54:36.250Z,1.70
2018-08-30T01:57:04.508Z,1.93
2018-08-30T01:59:32.786Z,1.80
2018-08-30T02:02:01.793Z,2.60
2018-08-30T02:04:30.062Z,2.07
2018-08-30T02:06:58.301Z,2.00
2018-08-30T02:09:27.335Z,2.10
2018-08-30T02:11:55.575Z,2.20
2018-08-30T02:14:24.625Z,2.10
2018-08-30T02:16:52.888Z,2.10
2018-08-30T02:19:21.122Z,2.33
2018-08-30T02:21:50.148Z,2.50
2018-08-30T02:24:18.409Z,2.20
2018-08-30T02:26:46.651Z,3.00
2018-08-30T02:29:14.916Z,2.80
2018-08-30T02:31:43.179Z,2.77
2018-08-30T02:34:11.434Z,2.73
2018-08-30T02:36:39.726Z,2.83
2018-08-30T02:39:07.962Z,2.30
2018-08-30T02:41:36.254Z,2.57
2018-08-30T02:44:04.499Z,2.33
2018-08-30T02:46:33.524Z,2.23
2018-08-30T02:49:01.801Z,2.17
2018-08-30T02:51:30.039Z,2.07
2018-08-30T02:53:59.043Z,2.03
2018-08-30T02:56:27.287Z,1.97
2018-08-30T02:58:55.559Z,2.13
2018-08-30T03:01:23.787Z,2.10
2018-08-30T03:03:52.046Z,2.37
2018-08-30T03:06:20.301Z,2.20
2018-08-30T03:08:49.331Z,1.90
2018-08-30T03:11:17.573Z,2.10
2018-08-30T03:13:45.847Z,2.17
2018-08-30T03:16:14.841Z,2.33
2018-08-30T03:18:43.115Z,2.37
2018-08-30T03:21:12.118Z,2.00
2018-08-30T03:23:40.365Z,2.27
2018-08-30T03:26:09.398Z,2.17
2018-08-30T03:28:37.653Z,2.00
2018-08-30T03:31:06.035Z,2.03
2018-08-30T03:33:34.208Z,2.27
2018-08-30T03:36:02.478Z,2.00
2018-08-30T03:38:30.740Z,2.80
2018-08-30T03:40:59.751Z,2.63
2018-08-30T03:43:28.010Z,2.63
2018-08-30T03:45:56.275Z,2.67
2018-08-30T03:48:24.574Z,2.67
2018-08-30T03:50:53.581Z,2.17
2018-08-30T03:53:21.851Z,1.90
2018-08-30T03:55:51.070Z,2.10
2018-08-30T03:58:19.329Z,2.43
2018-08-30T04:00:47.593Z,2.30
2018-08-30T04:03:15.867Z,2.23
2018-08-30T04:05:44.097Z,2.23
2018-08-30T04:08:12.365Z,2.47
2018-08-30T04:10:40.625Z,2.20
2018-08-30T04:13:08.861Z,2.50
2018-08-30T04:15:37.111Z,2.50
2018-08-30T04:18:06.129Z,2.83
2018-08-30T04:20:34.394Z,2.73
2018-08-30T04:23:03.402Z,3.40
2018-08-30T04:25:31.666Z,3.53
2018-08-30T04:27:59.911Z,3.13
2018-08-30T04:30:28.178Z,3.33
2018-08-30T04:32:56.451Z,3.20
2018-08-30T04:35:24.713Z,3.17
2018-08-30T04:37:52.954Z,3.80
2018-08-30T04:40:21.266Z,3.47
2018-08-30T04:42:50.339Z,3.53
2018-08-30T04:45:18.538Z,3.50
2018-08-30T04:47:46.797Z,3.10
2018-08-30T04:50:15.129Z,3.67
2018-08-30T04:52:43.319Z,3.33
2018-08-30T04:55:11.565Z,3.90
2018-08-30T04:57:40.593Z,3.33
2018-08-30T05:00:08.854Z,4.50
2018-08-30T05:02:37.106Z,4.73
2018-08-30T05:05:06.139Z,4.90
2018-08-30T05:07:34.375Z,5.70
2018-08-30T05:10:03.406Z,5.67
2018-08-30T05:12:31.641Z,5.77
2018-08-30T05:15:00.687Z,5.33
2018-08-30T05:17:28.925Z,6.37
2018-08-30T05:19:57.941Z,5.50
2018-08-30T05:22:26.199Z,5.50
2018-08-30T05:24:54.470Z,6.47
2018-08-30T05:27:23.493Z,5.70
2018-08-30T05:29:51.782Z,5.37
2018-08-30T05:32:19.992Z,5.40
2018-08-30T05:34:48.263Z,5.87
2018-08-30T05:37:16.515Z,6.10
2018-08-30T05:39:44.750Z,7.00
2018-08-30T05:42:13.014Z,7.47
2018-08-30T05:44:41.291Z,6.93
2018-08-30T05:47:09.528Z,7.40
2018-08-30T05:49:37.784Z,7.37
2018-08-30T05:52:06.034Z,6.93
2018-08-30T05:54:34.406Z,7.60
2018-08-30T05:57:02.694Z,6.90
2018-08-30T05:59:31.671Z,7.07
2018-08-30T06:01:59.941Z,6.67
2018-08-30T06:04:28.188Z,5.93
2018-08-30T06:06:57.206Z,6.03
2018-08-30T06:09:25.490Z,5.50
2018-08-30T06:11:53.734Z,5.97
2018-08-30T06:14:22.751Z,5.37
2018-08-30T06:16:50.999Z,5.13
2018-08-30T06:19:20.014Z,5.57
2018-08-30T06:21:48.307Z,5.67
2018-08-30T06:24:17.314Z,5.57
2018-08-30T06:26:45.604Z,4.87
2018-08-30T06:29:13.861Z,5.00
2018-08-30T06:31:42.850Z,5.30
2018-08-30T06:34:11.105Z,5.20
2018-08-30T06:36:39.391Z,5.20
2018-08-30T06:39:08.043Z,5.00
2018-08-30T06:41:36.257Z,5.63
2018-08-30T06:44:04.512Z,4.93
2018-08-30T06:46:32.774Z,4.87
2018-08-30T06:49:01.848Z,5.17
2018-08-30T06:51:30.020Z,4.90
2018-08-30T06:53:58.309Z,5.07
2018-08-30T06:56:26.630Z,5.10
2018-08-30T06:58:54.818Z,4.80
2018-08-30T07:01:23.061Z,4.80
2018-08-30T07:03:51.293Z,4.70
2018-08-30T07:06:20.323Z,5.23
2018-08-30T07:08:48.566Z,4.87
2018-08-30T07:11:17.595Z,4.63
2018-08-30T07:13:45.867Z,5.07
2018-08-30T07:16:14.106Z,4.40
2018-08-30T07:18:43.131Z,4.60
2018-08-30T07:21:11.456Z,4.60
2018-08-30T07:23:39.663Z,4.80
2018-08-30T07:26:08.690Z,4.13
2018-08-30T07:28:36.960Z,4.63
2018-08-30T07:31:05.199Z,4.40
2018-08-30T07:33:34.212Z,4.37
2018-08-30T07:36:02.469Z,4.20
2018-08-30T07:38:31.498Z,4.00
2018-08-30T07:40:59.743Z,4.13
2018-08-30T07:43:28.007Z,4.33
2018-08-30T07:45:57.010Z,4.03
2018-08-30T07:48:26.068Z,3.80
2018-08-30T07:50:55.161Z,3.87
2018-08-30T07:53:24.134Z,3.93
2018-08-30T07:55:52.370Z,3.57
2018-08-30T07:58:20.638Z,4.47
2018-08-30T08:00:49.671Z,3.50
2018-08-30T08:03:17.926Z,4.27
2018-08-30T08:05:46.244Z,4.10
2018-08-30T08:08:14.483Z,3.50
2018-08-30T08:10:42.723Z,3.80
2018-08-30T08:13:11.746Z,3.50
2018-08-30T08:15:40.002Z,4.00
2018-08-30T08:18:09.006Z,4.00
2018-08-30T08:20:37.282Z,3.50
2018-08-30T08:23:05.527Z,4.03
2018-08-30T08:25:33.796Z,3.63
2018-08-30T08:28:02.082Z,4.17
2018-08-30T08:30:31.092Z,4.17
2018-08-30T08:32:59.358Z,4.00
2018-08-30T08:35:28.366Z,4.57
2018-08-30T08:37:56.638Z,5.00
2018-08-30T08:40:24.878Z,4.93
2018-08-30T08:42:53.147Z,5.80
2018-08-30T08:45:21.397Z,5.50
2018-08-30T08:47:49.761Z,5.77
2018-08-30T08:50:17.921Z,4.83
2018-08-30T08:52:46.184Z,5.37
2018-08-30T08:55:14.491Z,5.67
2018-08-30T08:57:42.714Z,5.77
2018-08-30T09:00:11.849Z,5.00
2018-08-30T09:02:40.085Z,5.80
2018-08-30T09:05:09.094Z,5.50
2018-08-30T09:07:37.382Z,5.00
2018-08-30T09:10:05.603Z,5.57
2018-08-30T09:12:33.837Z,5.77
2018-08-30T09:15:02.112Z,5.70
2018-08-30T09:17:30.359Z,5.93
2018-08-30T09:19:59.485Z,5.97
2018-08-30T09:22:27.727Z,5.60
2018-08-30T09:24:56.734Z,6.00
2018-08-30T09:27:25.316Z,5.63
2018-08-30T09:29:53.569Z,5.73
2018-08-30T09:32:22.590Z,5.17
2018-08-30T09:34:50.853Z,5.50
2018-08-30T09:37:19.101Z,5.83
2018-08-30T09:39:47.373Z,7.17
2018-08-30T09:42:15.611Z,6.47
2018-08-30T09:44:43.915Z,7.03
2018-08-30T09:47:12.165Z,6.90
2018-08-30T09:49:40.452Z,7.23
2018-08-30T09:52:08.706Z,6.77
2018-08-30T09:54:36.967Z,7.67
2018-08-30T09:57:05.420Z,7.30
2018-08-30T09:59:33.503Z,6.93
2018-08-30T10:02:02.516Z,7.30
2018-08-30T10:04:30.824Z,7.87
2018-08-30T10:06:59.013Z,7.67
2018-08-30T10:09:27.299Z,8.03
2018-08-30T10:11:56.333Z,6.80
2018-08-30T10:14:24.579Z,7.17
2018-08-30T10:16:53.606Z,6.60
2018-08-30T10:19:21.855Z,7.20
2018-08-30T10:21:50.114Z,6.50
2018-08-30T10:24:19.134Z,7.30
2018-08-30T10:26:47.412Z,7.10
2018-08-30T10:29:15.649Z,7.00
2018-08-30T10:31:44.674Z,6.53
2018-08-30T10:34:12.912Z,6.43
2018-08-30T10:36:41.182Z,6.17
2018-08-30T10:39:09.430Z,6.50
2018-08-30T10:41:37.739Z,6.30
2018-08-30T10:44:05.958Z,6.63
2018-08-30T10:46:34.210Z,7.27
2018-08-30T10:49:03.242Z,6.97
2018-08-30T10:51:31.478Z,7.00
2018-08-30T10:53:59.747Z,7.23
2018-08-30T10:56:28.765Z,6.67
2018-08-30T10:58:57.033Z,7.23
2018-08-30T11:01:25.290Z,7.30
2018-08-30T11:03:54.316Z,7.07
2018-08-30T11:06:22.556Z,7.30
2018-08-30T11:08:51.602Z,6.90
2018-08-30T11:11:19.907Z,7.73
2018-08-30T11:13:48.166Z,7.80
2018-08-30T11:16:16.423Z,7.17
2018-08-30T11:18:44.678Z,7.60
2018-08-30T11:21:12.934Z,7.50
2018-08-30T11:23:41.209Z,7.50
2018-08-30T11:26:09.473Z,6.80
2018-08-30T11:28:38.490Z,7.80
2018-08-30T11:31:06.747Z,7.40
2018-08-30T11:33:34.996Z,7.30
2018-08-30T11:36:03.275Z,7.73
2018-08-30T11:38:32.300Z,8.07
2018-08-30T11:41:00.545Z,7.43
2018-08-30T11:43:29.653Z,7.43
2018-08-30T11:45:57.849Z,7.30
2018-08-30T11:48:26.113Z,7.63
2018-08-30T11:50:54.381Z,7.00
2018-08-30T11:53:23.407Z,7.03
2018-08-30T11:55:51.735Z,7.70
2018-08-30T11:58:20.007Z,7.80
2018-08-30T12:00:48.288Z,7.23
2018-08-30T12:03:16.490Z,7.90
2018-08-30T12:05:44.749Z,7.03
2018-08-30T12:08:13.807Z,7.87
2018-08-30T12:10:42.060Z,8.37
2018-08-30T12:13:11.037Z,7.60
2018-08-30T12:15:39.281Z,7.60
2018-08-30T12:18:08.327Z,7.50
2018-08-30T12:20:36.631Z,7.37
2018-08-30T12:23:04.824Z,7.07
2018-08-30T12:25:33.871Z,7.40
2018-08-30T12:28:02.153Z,7.03
2018-08-30T12:30:30.412Z,7.43
2018-08-30T12:32:58.698Z,7.20
2018-08-30T12:35:26.995Z,7.20
2018-08-30T12:37:55.360Z,7.47
2018-08-30T12:40:23.665Z,7.13
2018-08-30T12:42:52.736Z,7.57
2018-08-30T12:45:20.841Z,7.63
2018-08-30T12:47:49.890Z,8.03
2018-08-30T12:50:18.281Z,7.67
2018-08-30T12:52:46.518Z,7.17
2018-08-30T12:55:14.773Z,7.00
2018-08-30T12:57:43.069Z,7.40
2018-08-30T13:00:11.318Z,7.53
2018-08-30T13:02:39.643Z,7.37
2018-08-30T13:05:07.939Z,7.83
2018-08-30T13:07:36.175Z,7.07
2018-08-30T13:10:05.467Z,7.53
2018-08-30T13:12:33.744Z,7.80
2018-08-30T13:15:02.081Z,7.60
2018-08-30T13:17:30.453Z,7.30
2018-08-30T13:19:58.636Z,7.60
2018-08-30T13:22:27.746Z,7.03
2018-08-30T13:24:56.771Z,7.57
2018-08-30T13:27:25.047Z,7.63
2018-08-30T13:29:53.339Z,8.27
2018-08-30T13:32:21.647Z,7.70
2018-08-30T13:34:50.048Z,7.33
2018-08-30T13:37:18.271Z,8.27
2018-08-30T13:39:47.224Z,7.60
2018-08-30T13:42:15.694Z,8.43
2018-08-30T13:44:43.925Z,7.63
2018-08-30T13:47:12.068Z,7.20
2018-08-30T13:49:40.952Z,7.87
2018-08-30T13:52:09.499Z,8.30
2018-08-30T13:54:37.520Z,8.33
2018-08-30T13:57:05.841Z,8.27
2018-08-30T13:59:34.806Z,8.10
2018-08-30T14:02:02.739Z,7.47
2018-08-30T14:04:31.652Z,8.13
2018-08-30T14:06:59.940Z,8.30
2018-08-30T14:09:28.205Z,8.67
2018-08-30T14:11:56.661Z,7.47
2018-08-30T14:14:25.459Z,7.10
2018-08-30T14:16:53.477Z,8.17
2018-08-30T14:19:22.691Z,8.00
2018-08-30T14:21:50.782Z,7.50
2018-08-30T14:24:19.019Z,7.93
2018-08-30T14:26:47.453Z,8.07
2018-08-30T14:29:15.711Z,8.03
2018-08-30T14:31:44.072Z,8.60
2018-08-30T14:34:12.253Z,8.40
2018-08-30T14:36:40.509Z,8.13
2018-08-30T14:39:08.869Z,8.27
2018-08-30T14:41:37.094Z,8.07
2018-08-30T14:44:06.088Z,8.43
2018-08-30T14:46:34.386Z,8.77
2018-08-30T14:49:02.670Z,8.27
2018-08-30T14:51:31.834Z,7.43
2018-08-30T14:54:00.135Z,8.07
2018-08-30T14:56:28.323Z,8.87
2018-08-30T14:58:56.536Z,8.47
2018-08-30T15:01:24.817Z,7.97
2018-08-30T15:03:53.095Z,8.27
2018-08-30T15:06:21.383Z,8.23
2018-08-30T15:08:49.701Z,8.20
2018-08-30T15:11:17.931Z,8.10
2018-08-30T15:13:46.551Z,8.53
2018-08-30T15:16:15.576Z,8.43
2018-08-30T15:18:43.857Z,7.53
2018-08-30T15:21:13.407Z,8.00
2018-08-30T15:23:41.769Z,8.63
2018-08-30T15:26:10.748Z,7.83
2018-08-30T15:34:40.767Z,7.70
2018-08-30T15:37:25.148Z,8.30
2018-08-30T15:40:08.579Z,8.70
2018-08-30T15:42:47.752Z,8.43
2018-08-30T15:45:23.461Z,8.90
2018-08-30T15:48:00.253Z,9.63
2018-08-30T15:50:35.963Z,9.50
2018-08-30T15:59:21.873Z,9.50
2018-08-30T16:01:53.239Z,9.47
2018-08-30T16:04:26.028Z,8.30
2018-08-30T16:06:56.968Z,8.67
2018-08-30T16:09:41.483Z,8.50
2018-08-30T16:15:25.970Z,8.33
2018-08-30T16:18:00.382Z,8.40
2018-08-30T16:20:34.662Z,8.90
2018-08-30T16:23:09.712Z,8.07
2018-08-30T16:25:43.895Z,8.50
2018-08-30T16:28:18.255Z,7.97
2018-08-30T16:30:52.451Z,8.13
2018-08-30T16:33:26.795Z,8.13
2018-08-30T16:35:55.074Z,8.17
2018-08-30T16:38:23.325Z,7.77
2018-08-30T16:40:51.590Z,8.37
2018-08-30T16:43:19.879Z,8.97
2018-08-30T16:45:48.163Z,8.30
2018-08-30T16:48:17.183Z,8.17
2018-08-30T16:50:46.594Z,8.03
2018-08-30T16:53:14.920Z,8.07
2018-08-30T16:55:43.211Z,7.73
2018-08-30T16:58:11.414Z,7.27
2018-08-30T17:00:39.673Z,7.80
2018-08-30T17:03:08.695Z,8.47
2018-08-30T17:05:36.948Z,8.23
2018-08-30T17:08:05.219Z,8.40
2018-08-30T17:10:33.482Z,8.23
2018-08-30T17:13:02.489Z,8.53
2018-08-30T17:15:30.754Z,8.87
2018-08-30T17:17:59.046Z,8.27
2018-08-30T17:20:27.327Z,8.47
2018-08-30T17:22:55.603Z,8.77
2018-08-30T17:25:23.962Z,8.20
2018-08-30T17:27:52.115Z,8.77
2018-08-30T17:30:21.455Z,9.60
2018-08-30T17:32:49.709Z,8.87
2018-08-30T17:35:18.006Z,8.87
2018-08-30T17:37:46.265Z,8.87
2018-08-30T17:40:14.609Z,9.03
2018-08-30T17:42:42.874Z,9.60
2018-08-30T17:45:11.189Z,8.50
2018-08-30T17:47:39.399Z,9.60
2018-08-30T17:50:07.659Z,9.33
2018-08-30T17:52:35.935Z,9.50
2018-08-30T17:55:04.191Z,9.60
2018-08-30T17:57:32.445Z,8.93
2018-08-30T18:00:01.474Z,8.90
2018-08-30T18:02:29.727Z,9.10
2018-08-30T18:04:57.976Z,9.43
2018-08-30T18:07:27.023Z,9.33
2018-08-30T18:09:55.320Z,10.30
2018-08-30T18:12:23.602Z,9.77
2018-08-30T18:14:51.797Z,9.63
2018-08-30T18:17:20.830Z,9.53
2018-08-30T18:19:49.086Z,9.53
2018-08-30T18:22:17.409Z,8.87
2018-08-30T18:24:45.652Z,8.83
2018-08-30T18:27:14.009Z,9.30
2018-08-30T18:29:43.068Z,9.30
2018-08-30T18:32:11.390Z,8.37
2018-08-30T18:34:39.633Z,8.83
2018-08-30T18:37:07.889Z,9.53
2018-08-30T18:39:36.137Z,9.57
2018-08-30T18:42:04.403Z,9.13
2018-08-30T18:44:32.660Z,9.30
2018-08-30T18:47:01.770Z,8.40
2018-08-30T18:49:30.035Z,8.60
2018-08-30T18:51:58.305Z,8.70
2018-08-30T18:54:27.327Z,8.63
2018-08-30T18:56:55.590Z,9.13
2018-08-30T18:59:23.863Z,9.10
2018-08-30T19:01:52.368Z,9.50
2018-08-30T19:04:20.620Z,9.10
2018-08-30T19:06:49.064Z,9.53
2018-08-30T19:09:18.104Z,9.27
2018-08-30T19:11:46.641Z,9.00
2018-08-30T19:14:14.954Z,9.50
2018-08-30T19:17:02.898Z,9.63
2018-08-30T19:19:31.466Z,9.10
2018-08-30T19:21:59.974Z,9.80
2018-08-30T19:24:28.231Z,9.70
2018-08-30T19:26:56.762Z,9.60
2018-08-30T19:29:26.055Z,9.83
2018-08-30T19:31:55.341Z,9.60
2018-08-30T19:34:23.635Z,9.93
2018-08-30T19:36:52.686Z,9.13
2018-08-30T19:39:20.946Z,8.90
2018-08-30T19:41:49.297Z,9.53
2018-08-30T19:44:20.740Z,9.23
2018-08-30T19:46:49.106Z,9.67
2018-08-30T19:49:17.395Z,9.40
2018-08-30T19:51:46.640Z,9.33
2018-08-30T19:54:14.974Z,8.77
2018-08-30T19:56:43.216Z,9.60
2018-08-30T19:59:11.495Z,9.30
2018-08-30T20:01:39.817Z,9.37
2018-08-30T20:04:08.085Z,9.33
2018-08-30T20:06:36.611Z,9.97
2018-08-30T20:09:04.900Z,9.73
2018-08-30T20:11:33.103Z,9.20
2018-08-30T20:14:02.151Z,8.73
2018-08-30T20:16:30.402Z,8.80
2018-08-30T20:18:58.674Z,9.70
2018-08-30T20:21:26.923Z,9.57
2018-08-30T20:23:56.223Z,9.67
2018-08-30T20:26:25.251Z,9.03
2018-08-30T20:28:53.518Z,8.97
2018-08-30T20:31:22.094Z,9.40
2018-08-30T20:33:50.344Z,8.83
2018-08-30T20:36:19.358Z,9.27
2018-08-30T20:38:47.646Z,8.73
2018-08-30T20:41:15.933Z,9.60
2018-08-30T20:43:44.162Z,9.70
2018-08-30T20:46:13.173Z,9.67
2018-08-30T20:48:41.454Z,9.17
2018-08-30T20:51:09.694Z,9.37
2018-08-30T20:53:38.734Z,9.40
2018-08-30T20:56:30.908Z,9.30
2018-08-30T20:58:59.172Z,9.53
2018-08-30T21:01:27.436Z,9.27
2018-08-30T21:03:55.759Z,9.60
2018-08-30T21:06:24.828Z,9.97
2018-08-30T21:08:53.119Z,8.70
2018-08-30T21:11:21.346Z,9.40
2018-08-30T21:13:49.755Z,9.20
2018-08-30T21:16:18.028Z,9.47
2018-08-30T21:18:46.292Z,9.27
2018-08-30T21:21:14.558Z,9.73
2018-08-30T21:23:43.578Z,8.83
2018-08-30T21:26:12.369Z,9.20
2018-08-30T21:28:41.388Z,9.23
2018-08-30T21:31:09.670Z,9.27
2018-08-30T21:33:37.985Z,9.30
2018-08-30T21:36:06.219Z,9.23
2018-08-30T21:38:34.498Z,9.07
2018-08-30T21:41:02.751Z,9.67
2018-08-30T21:43:31.798Z,8.97
2018-08-30T21:46:00.040Z,9.77
2018-08-30T21:48:28.302Z,9.23
2018-08-30T21:50:56.577Z,9.47
2018-08-30T21:53:24.845Z,9.20
2018-08-30T21:55:53.897Z,9.67
2018-08-30T21:58:22.154Z,9.53
2018-08-30T22:00:50.414Z,9.47
2018-08-30T22:03:18.657Z,8.87
2018-08-30T22:05:46.941Z,9.67
2018-08-30T22:08:15.963Z,9.10
2018-08-30T22:10:44.243Z,8.47
2018-08-30T22:13:12.547Z,8.77
2018-08-30T22:15:40.781Z,9.47
2018-08-30T22:18:09.041Z,9.33
2018-08-30T22:20:37.362Z,9.50
2018-08-30T22:23:05.638Z,9.40
2018-08-30T22:25:33.884Z,9.13
2018-08-30T22:28:02.183Z,9.40
2018-08-30T22:30:30.422Z,9.83
2018-08-30T22:32:58.700Z,10.33
2018-08-30T22:35:26.957Z,8.47
2018-08-30T22:37:56.007Z,9.23
2018-08-30T22:40:24.340Z,9.33
2018-08-30T22:42:52.506Z,9.40
2018-08-30T22:45:20.787Z,9.70
2018-08-30T22:47:49.057Z,10.00
2018-08-30T22:50:18.065Z,9.60
2018-08-30T22:52:46.343Z,9.40
2018-08-30T22:55:14.598Z,8.97
2018-08-30T22:57:42.896Z,9.27
2018-08-30T23:00:11.914Z,9.33
2018-08-30T23:02:40.186Z,10.37
2018-08-30T23:05:08.426Z,9.80
2018-08-30T23:07:36.697Z,9.37
2018-08-30T23:10:04.970Z,9.20
2018-08-30T23:12:33.212Z,9.83
2018-08-30T23:15:01.477Z,9.40
2018-08-30T23:17:29.733Z,9.37
2018-08-30T23:19:58.001Z,9.33
2018-08-30T23:22:26.253Z,10.30
2018-08-30T23:24:54.531Z,10.10
2018-08-30T23:27:22.787Z,9.67
2018-08-30T23:29:51.821Z,8.20
2018-08-30T23:32:20.070Z,6.20
2018-08-30T23:34:48.341Z,4.13
2018-08-30T23:37:16.584Z,4.63
2018-08-30T23:39:44.834Z,4.00
2018-08-30T23:42:13.102Z,3.60
2018-08-30T23:44:41.353Z,3.60
2018-08-30T23:47:09.626Z,3.63
2018-08-30T23:49:37.858Z,3.63
2018-08-30T23:52:06.124Z,4.00
2018-08-30T23:54:34.386Z,3.27
2018-08-30T23:57:02.643Z,4.00
2018-08-30T23:59:57.612Z,4.07
